G979RC EGQG-EGEO

Flight info

Callsign G979RC
Flight time N/A
Altitude 13000
Route LOCAL VFR
Aircraft BE36/L-VGD/C

Departure

Time N/A
Airport EGQG

Arrival

Time 2026-05-04 13:12
Airport Oban Airport (EGEO)
Time Latitude Longitude Altitude Speed Heading
2026-05-04 12:12 57.51678 -1.86054 168 ft 0 kts 188°
2026-05-04 12:13 57.51654 -1.86086 168 ft 0 kts 278°
2026-05-04 12:14 57.52026 -1.90220 1271 ft 117 kts 279°
2026-05-04 12:15 57.52015 -1.91795 1564 ft 130 kts 246°
2026-05-04 12:15 57.51428 -1.93150 1858 ft 137 kts 238°
2026-05-04 12:15 57.50978 -1.94561 2109 ft 102 kts 245°
2026-05-04 12:15 57.50707 -1.95512 2124 ft 87 kts 245°
2026-05-04 12:16 57.50365 -1.96642 2379 ft 110 kts 245°
2026-05-04 12:16 57.49987 -1.97975 2669 ft 122 kts 245°
2026-05-04 12:16 57.49586 -1.99416 2955 ft 128 kts 245°
2026-05-04 12:16 57.49170 -2.00907 3234 ft 132 kts 245°
2026-05-04 12:17 57.48739 -2.02437 3502 ft 134 kts 245°
2026-05-04 12:17 57.48303 -2.03984 3768 ft 135 kts 245°
2026-05-04 12:17 57.47867 -2.05531 4030 ft 138 kts 245°
2026-05-04 12:17 57.47418 -2.07119 4299 ft 140 kts 245°
2026-05-04 12:18 57.46960 -2.08736 4566 ft 139 kts 245°
2026-05-04 12:18 57.46513 -2.10316 4828 ft 140 kts 245°
2026-05-04 12:18 57.46062 -2.11916 5084 ft 139 kts 246°
2026-05-04 12:18 57.45610 -2.13515 5343 ft 139 kts 246°
2026-05-04 12:19 57.45159 -2.15102 5597 ft 138 kts 246°
2026-05-04 12:19 57.44712 -2.16678 5857 ft 137 kts 246°
2026-05-04 12:19 57.44269 -2.18240 6120 ft 136 kts 247°
2026-05-04 12:19 57.43829 -2.19789 6382 ft 135 kts 247°
2026-05-04 12:20 57.43392 -2.21324 6622 ft 133 kts 247°
2026-05-04 12:20 57.42965 -2.22826 6877 ft 131 kts 247°
2026-05-04 12:20 57.42545 -2.24302 7112 ft 130 kts 247°
2026-05-04 12:20 57.42127 -2.25770 7361 ft 127 kts 248°
2026-05-04 12:21 57.41717 -2.27213 7611 ft 125 kts 248°
2026-05-04 12:21 57.41315 -2.28621 7861 ft 122 kts 248°
2026-05-04 12:21 57.40923 -2.29990 8114 ft 118 kts 248°
2026-05-04 12:21 57.40547 -2.31306 8360 ft 113 kts 248°
2026-05-04 12:22 57.40189 -2.32561 8616 ft 107 kts 249°
2026-05-04 12:22 57.39851 -2.33747 8864 ft 101 kts 249°
2026-05-04 12:22 57.39520 -2.34910 8985 ft 107 kts 249°
2026-05-04 12:22 57.39284 -2.35742 8990 ft 113 kts 248°
2026-05-04 12:23 57.38901 -2.37083 8999 ft 122 kts 248°
2026-05-04 12:23 57.38495 -2.38502 8999 ft 128 kts 248°
2026-05-04 12:23 57.38072 -2.39978 8999 ft 132 kts 247°
2026-05-04 12:23 57.37636 -2.41501 8998 ft 136 kts 247°
2026-05-04 12:24 57.37187 -2.43063 8996 ft 138 kts 247°
2026-05-04 12:24 57.36732 -2.44648 8999 ft 140 kts 247°
2026-05-04 12:24 57.36274 -2.46241 8999 ft 140 kts 246°
2026-05-04 12:24 57.35821 -2.47816 8997 ft 140 kts 246°
2026-05-04 12:25 57.35362 -2.49416 8982 ft 141 kts 247°
2026-05-04 12:25 57.34900 -2.51018 8981 ft 141 kts 247°
2026-05-04 12:25 57.34438 -2.52621 8982 ft 141 kts 246°
2026-05-04 12:25 57.33975 -2.54229 8982 ft 142 kts 246°
2026-05-04 12:26 57.33511 -2.55840 8980 ft 142 kts 246°
2026-05-04 12:26 57.33045 -2.57454 8983 ft 142 kts 246°
2026-05-04 12:26 57.32581 -2.59059 8983 ft 143 kts 246°
2026-05-04 12:26 57.32112 -2.60683 8983 ft 142 kts 246°
2026-05-04 12:27 57.31644 -2.62301 8984 ft 142 kts 246°
2026-05-04 12:27 57.31178 -2.63913 8981 ft 142 kts 246°
2026-05-04 12:27 57.30713 -2.65520 8980 ft 142 kts 246°
2026-05-04 12:27 57.30247 -2.67127 8980 ft 142 kts 246°
2026-05-04 12:28 57.29780 -2.68737 8978 ft 142 kts 246°
2026-05-04 12:28 57.29315 -2.70342 8980 ft 142 kts 246°
2026-05-04 12:28 57.28847 -2.71953 8979 ft 142 kts 246°
2026-05-04 12:28 57.28382 -2.73556 8981 ft 142 kts 247°
2026-05-04 12:29 57.27913 -2.75163 8975 ft 142 kts 246°
2026-05-04 12:29 57.27447 -2.76769 8978 ft 142 kts 246°
2026-05-04 12:29 57.26976 -2.78384 8972 ft 142 kts 246°
2026-05-04 12:29 57.26511 -2.79980 8971 ft 140 kts 246°
2026-05-04 12:30 57.26050 -2.81556 8976 ft 140 kts 246°
2026-05-04 12:30 57.25588 -2.83146 8973 ft 141 kts 246°
2026-05-04 12:30 57.25127 -2.84723 8976 ft 142 kts 246°
2026-05-04 12:30 57.24659 -2.86319 8984 ft 141 kts 246°
2026-05-04 12:31 57.24191 -2.87921 8984 ft 142 kts 246°
2026-05-04 12:31 57.23721 -2.89531 8985 ft 143 kts 246°
2026-05-04 12:31 57.23248 -2.91146 8982 ft 143 kts 245°
2026-05-04 12:31 57.22776 -2.92754 8983 ft 142 kts 246°
2026-05-04 12:32 57.22305 -2.94364 8986 ft 143 kts 246°
2026-05-04 12:32 57.21364 -2.97571 8973 ft 143 kts 246°
2026-05-04 12:32 57.20891 -2.99176 8975 ft 143 kts 246°
2026-05-04 12:33 57.20417 -3.00798 8973 ft 144 kts 246°
2026-05-04 12:33 57.19940 -3.02417 8973 ft 143 kts 245°
2026-05-04 12:33 57.19462 -3.04030 8973 ft 143 kts 246°
2026-05-04 12:33 57.18987 -3.05646 8972 ft 143 kts 246°
2026-05-04 12:34 57.18513 -3.07257 8977 ft 143 kts 246°
2026-05-04 12:34 57.18036 -3.08875 8977 ft 143 kts 245°
2026-05-04 12:34 57.17558 -3.10492 8976 ft 144 kts 246°
2026-05-04 12:34 57.17078 -3.12118 8976 ft 144 kts 246°
2026-05-04 12:35 57.16598 -3.13742 8973 ft 144 kts 246°
2026-05-04 12:35 57.16119 -3.15366 8977 ft 145 kts 246°
2026-05-04 12:35 57.15634 -3.16997 8978 ft 146 kts 246°
2026-05-04 12:35 57.15150 -3.18633 8978 ft 146 kts 245°
2026-05-04 12:36 57.14664 -3.20272 8984 ft 146 kts 245°
2026-05-04 12:36 57.14177 -3.21910 8982 ft 146 kts 245°
2026-05-04 12:36 57.13690 -3.23552 8981 ft 146 kts 246°
2026-05-04 12:36 57.13208 -3.25169 8979 ft 145 kts 246°
2026-05-04 12:37 57.12726 -3.26802 8979 ft 145 kts 245°
2026-05-04 12:37 57.12242 -3.28425 8979 ft 145 kts 245°
2026-05-04 12:37 57.11761 -3.30050 8975 ft 143 kts 246°
2026-05-04 12:37 57.11279 -3.31663 8967 ft 144 kts 245°
2026-05-04 12:38 57.10799 -3.33267 8984 ft 144 kts 245°
2026-05-04 12:38 57.10318 -3.34874 8981 ft 142 kts 245°
2026-05-04 12:38 57.09843 -3.36466 8981 ft 142 kts 245°
2026-05-04 12:38 57.09369 -3.38054 8978 ft 141 kts 245°
2026-05-04 12:39 57.08896 -3.39632 8971 ft 137 kts 247°
2026-05-04 12:39 57.08442 -3.41159 8992 ft 137 kts 246°
2026-05-04 12:39 57.07981 -3.42692 8983 ft 136 kts 246°
2026-05-04 12:39 57.07523 -3.44225 8985 ft 137 kts 246°
2026-05-04 12:40 57.07061 -3.45763 8991 ft 139 kts 245°
2026-05-04 12:40 57.06588 -3.47346 8980 ft 141 kts 245°
2026-05-04 12:40 57.06114 -3.48925 8982 ft 141 kts 245°
2026-05-04 12:40 57.05632 -3.50523 8982 ft 144 kts 246°
2026-05-04 12:41 57.05156 -3.52127 8981 ft 146 kts 245°
2026-05-04 12:41 57.04662 -3.53757 8979 ft 147 kts 245°
2026-05-04 12:41 57.04169 -3.55391 8992 ft 146 kts 245°
2026-05-04 12:41 57.03677 -3.57025 8991 ft 146 kts 245°
2026-05-04 12:42 57.03185 -3.58658 8985 ft 145 kts 245°
2026-05-04 12:42 57.02701 -3.60263 8998 ft 144 kts 245°
2026-05-04 12:42 57.02214 -3.61876 8997 ft 144 kts 245°
2026-05-04 12:42 57.01728 -3.63487 8993 ft 144 kts 245°
2026-05-04 12:43 57.01242 -3.65096 8998 ft 144 kts 245°
2026-05-04 12:43 57.00753 -3.66712 8996 ft 145 kts 245°
2026-05-04 12:43 57.00265 -3.68323 8990 ft 143 kts 245°
2026-05-04 12:43 56.99786 -3.69905 8989 ft 143 kts 245°
2026-05-04 12:44 56.99300 -3.71511 8987 ft 144 kts 245°
2026-05-04 12:44 56.98812 -3.73120 8985 ft 144 kts 244°
2026-05-04 12:44 56.98325 -3.74725 8987 ft 144 kts 245°
2026-05-04 12:44 56.97837 -3.76331 8988 ft 144 kts 245°
2026-05-04 12:45 56.97349 -3.77936 8998 ft 145 kts 245°
2026-05-04 12:45 56.96859 -3.79551 9001 ft 145 kts 244°
2026-05-04 12:45 56.96369 -3.81160 9001 ft 144 kts 244°
2026-05-04 12:45 56.95880 -3.82763 8996 ft 144 kts 245°
2026-05-04 12:46 56.95394 -3.84361 8996 ft 143 kts 245°
2026-05-04 12:46 56.94908 -3.85954 8997 ft 143 kts 245°
2026-05-04 12:46 56.94421 -3.87551 8994 ft 143 kts 245°
2026-05-04 12:46 56.93935 -3.89143 8994 ft 144 kts 245°
2026-05-04 12:47 56.93448 -3.90738 8998 ft 143 kts 245°
2026-05-04 12:47 56.92967 -3.92315 8999 ft 144 kts 245°
2026-05-04 12:47 56.92477 -3.93911 8999 ft 143 kts 244°
2026-05-04 12:47 56.91989 -3.95507 8995 ft 144 kts 244°
2026-05-04 12:48 56.91499 -3.97100 8999 ft 143 kts 245°
2026-05-04 12:48 56.91013 -3.98694 8995 ft 144 kts 245°
2026-05-04 12:48 56.90523 -4.00291 9004 ft 144 kts 245°
2026-05-04 12:48 56.90030 -4.01893 9010 ft 145 kts 244°
2026-05-04 12:49 56.89536 -4.03497 9005 ft 144 kts 244°
2026-05-04 12:49 56.89052 -4.05075 9002 ft 141 kts 244°
2026-05-04 12:49 56.88570 -4.06643 9008 ft 143 kts 244°
2026-05-04 12:49 56.88080 -4.08234 9001 ft 142 kts 245°
2026-05-04 12:50 56.87597 -4.09801 9002 ft 141 kts 245°
2026-05-04 12:50 56.87112 -4.11378 9003 ft 143 kts 245°
2026-05-04 12:50 56.86627 -4.12954 9003 ft 140 kts 245°
2026-05-04 12:50 56.86150 -4.14500 9008 ft 140 kts 245°
2026-05-04 12:51 56.85672 -4.16045 9002 ft 140 kts 245°
2026-05-04 12:51 56.85192 -4.17598 9003 ft 140 kts 244°
2026-05-04 12:51 56.84707 -4.19157 9012 ft 143 kts 244°
2026-05-04 12:51 56.84220 -4.20741 9007 ft 146 kts 245°
2026-05-04 12:52 56.83721 -4.22346 9025 ft 145 kts 245°
2026-05-04 12:52 56.83226 -4.23951 9023 ft 145 kts 245°
2026-05-04 12:52 56.82726 -4.25563 9027 ft 146 kts 244°
2026-05-04 12:52 56.82226 -4.27174 9026 ft 146 kts 244°
2026-05-04 12:53 56.81725 -4.28787 9023 ft 146 kts 244°
2026-05-04 12:53 56.81227 -4.30396 9022 ft 145 kts 244°
2026-05-04 12:53 56.80726 -4.31998 9024 ft 145 kts 244°
2026-05-04 12:53 56.80227 -4.33606 9028 ft 146 kts 244°
2026-05-04 12:54 56.79727 -4.35213 9029 ft 146 kts 244°
2026-05-04 12:54 56.79220 -4.36835 9027 ft 147 kts 244°
2026-05-04 12:54 56.78714 -4.38457 9025 ft 147 kts 244°
2026-05-04 12:54 56.78212 -4.40068 9023 ft 145 kts 244°
2026-05-04 12:55 56.77714 -4.41667 9029 ft 146 kts 244°
2026-05-04 12:55 56.77205 -4.43292 9025 ft 148 kts 244°
2026-05-04 12:55 56.76698 -4.44914 9033 ft 147 kts 245°
2026-05-04 12:55 56.76195 -4.46525 9017 ft 146 kts 244°
2026-05-04 12:56 56.75693 -4.48130 9021 ft 145 kts 244°
2026-05-04 12:56 56.75192 -4.49729 9018 ft 145 kts 244°
2026-05-04 12:56 56.74695 -4.51314 9020 ft 144 kts 244°
2026-05-04 12:56 56.74200 -4.52892 9020 ft 143 kts 244°
2026-05-04 12:57 56.73708 -4.54468 9025 ft 144 kts 244°
2026-05-04 12:57 56.73203 -4.56068 9024 ft 146 kts 244°
2026-05-04 12:57 56.72703 -4.57653 9027 ft 146 kts 244°
2026-05-04 12:57 56.72197 -4.59264 9027 ft 146 kts 244°
2026-05-04 12:58 56.71691 -4.60874 9027 ft 146 kts 244°
2026-05-04 12:58 56.71188 -4.62472 9026 ft 145 kts 244°
2026-05-04 12:58 56.70685 -4.64067 9025 ft 145 kts 244°
2026-05-04 12:58 56.70182 -4.65660 9024 ft 145 kts 243°
2026-05-04 12:59 56.69680 -4.67251 9028 ft 145 kts 244°
2026-05-04 12:59 56.69175 -4.68853 9027 ft 146 kts 244°
2026-05-04 12:59 56.68670 -4.70453 9031 ft 146 kts 244°
2026-05-04 12:59 56.68162 -4.72059 9032 ft 147 kts 244°
2026-05-04 13:00 56.67650 -4.73676 9030 ft 147 kts 244°
2026-05-04 13:00 56.67146 -4.75267 9033 ft 147 kts 244°
2026-05-04 13:00 56.66629 -4.76897 9032 ft 147 kts 244°
2026-05-04 13:00 56.66126 -4.78482 9032 ft 146 kts 244°
2026-05-04 13:01 56.65618 -4.80087 9031 ft 146 kts 244°
2026-05-04 13:01 56.65109 -4.81689 9032 ft 146 kts 244°
2026-05-04 13:01 56.64578 -4.83356 8803 ft 159 kts 241°
2026-05-04 13:01 56.63790 -4.84885 8554 ft 172 kts 227°
2026-05-04 13:02 56.62898 -4.86388 8309 ft 177 kts 229°
2026-05-04 13:02 56.62032 -4.88010 8072 ft 182 kts 230°
2026-05-04 13:02 56.61145 -4.89693 7802 ft 184 kts 230°
2026-05-04 13:02 56.60270 -4.91340 7582 ft 185 kts 231°
2026-05-04 13:03 56.59372 -4.93047 7339 ft 189 kts 230°
2026-05-04 13:03 56.58464 -4.94778 7099 ft 190 kts 231°
2026-05-04 13:03 56.57544 -4.96544 6860 ft 194 kts 231°
2026-05-04 13:03 56.56608 -4.98328 6617 ft 196 kts 230°
2026-05-04 13:04 56.55667 -5.00115 6372 ft 196 kts 230°
2026-05-04 13:04 56.54712 -5.01937 5919 ft 204 kts 230°
2026-05-04 13:04 56.53721 -5.03845 5395 ft 209 kts 230°
2026-05-04 13:04 56.52720 -5.05767 4909 ft 213 kts 231°
2026-05-04 13:05 56.51685 -5.07716 4383 ft 216 kts 229°
2026-05-04 13:05 56.50608 -5.09593 4073 ft 210 kts 227°
2026-05-04 13:05 56.49564 -5.11321 4069 ft 198 kts 226°
2026-05-04 13:05 56.48568 -5.12982 4064 ft 192 kts 227°
2026-05-04 13:06 56.47597 -5.14591 4059 ft 187 kts 227°
2026-05-04 13:06 56.46637 -5.16154 4061 ft 185 kts 227°
2026-05-04 13:06 56.45686 -5.17706 4063 ft 183 kts 226°
2026-05-04 13:06 56.44946 -5.19451 4031 ft 177 kts 247°
2026-05-04 13:07 56.44397 -5.21569 3693 ft 191 kts 250°
2026-05-04 13:07 56.43846 -5.23773 3441 ft 194 kts 249°
2026-05-04 13:07 56.43343 -5.26033 3183 ft 193 kts 256°
2026-05-04 13:07 56.43032 -5.28387 2926 ft 192 kts 260°
2026-05-04 13:08 56.42766 -5.30760 2669 ft 193 kts 260°
2026-05-04 13:08 56.42701 -5.33166 2409 ft 192 kts 275°
2026-05-04 13:08 56.42855 -5.35567 2154 ft 193 kts 277°
2026-05-04 13:08 56.43027 -5.37946 2081 ft 186 kts 277°
2026-05-04 13:09 56.43192 -5.40229 2061 ft 181 kts 277°
2026-05-04 13:09 56.43128 -5.42330 1792 ft 165 kts 253°
2026-05-04 13:09 56.42619 -5.44096 1464 ft 158 kts 229°
2026-05-04 13:09 56.41597 -5.44800 1216 ft 154 kts 179°
2026-05-04 13:10 56.40784 -5.43814 1139 ft 150 kts 105°
2026-05-04 13:10 56.41230 -5.42390 1029 ft 134 kts 15°
2026-05-04 13:10 56.42143 -5.41655 953 ft 158 kts 20°
2026-05-04 13:10 56.42829 -5.41097 943 ft 170 kts 20°
2026-05-04 13:11 56.43922 -5.40451 752 ft 148 kts
2026-05-04 13:11 56.44746 -5.40193 443 ft 100 kts
2026-05-04 13:11 56.45385 -5.40112 233 ft 88 kts
2026-05-04 13:11 56.45990 -5.40054 30 ft 78 kts
2026-05-04 13:12 56.46386 -5.39981 28 ft 26 kts
2026-05-04 13:12 56.46534 -5.39954 29 ft 13 kts
2026-05-04 13:12 56.46566 -5.39833 28 ft 12 kts 24°
2026-05-04 13:12 56.46640 -5.39808 28 ft 10 kts 47°
2026-05-04 13:13 56.46639 -5.39779 28 ft 1 kts 155°
2026-05-04 13:13 56.46634 -5.39780 28 ft 0 kts 202°